Time;durP1;ratioP1;P1;durP2;ratioP2;P2;SDS_P1;SDS_P2;PMS_P1;PMS_P2;Temp;Humidity;BMP_temperature;BMP_pressure;BME280_temperature;BME280_humidity;BME280_pressure;Samples;Min_cycle;Max_cycle;Signal;HPM_P1;HPM_P2
2022/11/04 00:01:41;;;;;;;;;2.00;1.00;;;;;11.78;71.89;99937.22;4980423;28;45253;-75
2022/11/04 00:04:07;;;;;;;;;6.00;3.00;;;;;11.88;71.88;99943.19;4978618;28;45562;-72
2022/11/04 00:06:33;;;;;;;;;5.00;1.67;;;;;11.45;71.25;99869.94;4979220;28;46035;-73
2022/11/04 00:08:59;;;;;;;;;3.33;1.33;;;;;11.92;71.53;99949.00;4977723;28;45770;-73
2022/11/04 00:14:11;;;;;;;;;3.33;2.67;;;;;11.90;71.73;99919.06;4979882;28;45464;-74
2022/11/04 00:19:21;;;;;;;;;3.00;1.33;;;;;11.95;71.74;99911.38;4975615;28;45745;-74
2022/11/04 00:29:56;;;;;;;;;2.33;1.00;;;;;11.71;71.54;99855.53;4979554;28;45381;-73
2022/11/04 00:35:07;;;;;;;;;3.33;2.00;;;;;11.82;72.15;99879.16;4978766;28;45465;-72
2022/11/04 00:37:44;;;;;;;;;4.00;2.67;;;;;11.65;72.19;99835.75;4980022;28;45429;-71
2022/11/04 00:40:12;;;;;;;;;1.67;1.67;;;;;11.20;72.22;99768.03;4983802;28;45746;-72
2022/11/04 00:42:38;;;;;;;;;4.67;3.67;;;;;11.56;72.35;99842.91;5011905;28;46245;-73
2022/11/04 00:45:05;;;;;;;;;5.00;2.67;;;;;12.00;72.26;99902.84;4987313;28;45581;-72
2022/11/04 00:47:30;;;;;;;;;2.67;2.00;;;;;12.01;72.45;99920.50;4977944;28;45632;-72
2022/11/04 00:49:55;;;;;;;;;1.33;0.67;;;;;11.99;72.82;99902.03;4977612;28;46405;-73
2022/11/04 00:52:21;;;;;;;;;1.00;1.00;;;;;12.07;72.57;99903.84;4975068;28;45547;-71
2022/11/04 00:54:46;;;;;;;;;2.33;2.00;;;;;12.02;72.25;99892.88;4978910;28;45273;-71
2022/11/04 00:57:13;;;;;;;;;1.00;1.00;;;;;10.63;72.13;99669.84;4979526;28;45422;-72
2022/11/04 00:59:39;;;;;;;;;5.00;2.67;;;;;11.97;72.15;99881.88;4979173;28;45597;-73
2022/11/04 01:02:05;;;;;;;;;2.00;2.00;;;;;12.03;72.10;99913.19;4979575;28;45356;-75
2022/11/04 01:04:31;;;;;;;;;3.00;1.67;;;;;11.71;72.20;99828.88;4974788;28;46120;-71
2022/11/04 01:06:56;;;;;;;;;2.67;2.67;;;;;11.63;72.52;99821.78;4967696;28;45421;-73
2022/11/04 01:09:22;;;;;;;;;4.00;4.00;;;;;11.83;72.64;99851.50;4958588;28;46437;-73
2022/11/04 01:11:47;;;;;;;;;3.00;2.00;;;;;12.08;72.35;99894.84;4963020;28;45401;-72
2022/11/04 01:14:13;;;;;;;;;5.00;2.33;;;;;11.69;72.51;99807.75;4978057;28;45772;-73
2022/11/04 01:16:38;;;;;;;;;3.00;0.00;;;;;12.14;72.55;99872.81;4977221;28;45542;-71
2022/11/04 01:19:03;;;;;;;;;6.67;1.67;;;;;11.90;72.31;99827.66;4977714;28;45967;-73
2022/11/04 01:21:29;;;;;;;;;2.00;0.67;;;;;11.59;72.81;99788.50;4977780;28;45411;-75
2022/11/04 01:23:55;;;;;;;;;2.00;2.00;;;;;12.09;72.91;99869.84;4992434;28;45507;-73
2022/11/04 01:26:23;;;;;;;;;1.00;1.00;;;;;11.46;72.97;99766.97;4992448;28;45512;-72
2022/11/04 01:28:50;;;;;;;;;5.33;2.00;;;;;11.77;73.03;99834.34;4977707;28;45887;-74
2022/11/04 01:31:21;;;;;;;;;2.67;2.67;;;;;11.81;72.99;99825.06;4975618;28;45371;-71
2022/11/04 01:33:48;;;;;;;;;1.00;0.67;;;;;11.99;73.18;99874.56;4978424;28;45370;-71
2022/11/04 01:36:14;;;;;;;;;2.00;1.67;;;;;11.85;73.36;99837.00;4978028;28;45388;-73
2022/11/04 01:38:39;;;;;;;;;3.00;2.00;;;;;12.05;72.95;99869.38;4976409;28;46335;-72
2022/11/04 01:41:08;;;;;;;;;5.33;2.00;;;;;12.03;72.73;99857.25;4977523;28;45572;-70
2022/11/04 01:43:53;;;;;;;;;2.00;1.00;;;;;11.30;72.77;99751.88;4976815;28;45529;-72
2022/11/04 01:46:24;;;;;;;;;1.00;1.00;;;;;11.86;73.18;99838.69;4978223;28;45414;-71
2022/11/04 01:48:51;;;;;;;;;3.00;1.67;;;;;11.42;73.10;99765.66;4977214;28;46198;-71
2022/11/04 01:51:17;;;;;;;;;6.67;2.00;;;;;11.20;72.83;99729.97;4976890;28;46673;-72
2022/11/04 01:53:43;;;;;;;;;3.00;1.33;;;;;11.93;73.21;99854.78;4978325;28;45225;-72
2022/11/04 01:56:13;;;;;;;;;2.00;2.00;;;;;11.56;73.53;99786.19;4992374;28;45621;-70
2022/11/04 01:58:45;;;;;;;;;4.00;1.00;;;;;11.32;73.06;99735.75;4977136;28;46498;-73
2022/11/04 02:01:11;;;;;;;;;4.00;1.67;;;;;11.94;72.86;99829.81;4991912;28;46618;-73
2022/11/04 02:03:48;;;;;;;;;1.67;1.00;;;;;11.39;72.90;99750.00;4976839;28;45508;-71
2022/11/04 02:06:15;;;;;;;;;3.00;2.33;;;;;11.56;73.11;99772.88;4991675;28;45375;-73
2022/11/04 02:08:41;;;;;;;;;1.00;1.00;;;;;11.86;73.16;99811.22;4977322;28;46045;-71
2022/11/04 02:11:06;;;;;;;;;4.67;2.00;;;;;11.70;72.74;99801.44;4976399;28;45539;-73
2022/11/04 02:13:34;;;;;;;;;1.00;0.00;;;;;11.73;72.91;99801.09;4977059;28;45675;-71
2022/11/04 02:16:20;;;;;;;;;4.00;3.00;;;;;11.86;72.88;99838.69;4978276;28;45318;-75
2022/11/04 02:19:13;;;;;;;;;1.00;1.00;;;;;11.81;72.73;99822.41;4979804;28;47040;-72
2022/11/04 02:21:41;;;;;;;;;3.00;1.67;;;;;11.83;72.80;99812.41;4978869;28;46160;-72
2022/11/04 02:24:37;;;;;;;;;1.33;1.00;;;;;11.84;72.84;99803.41;4978629;28;45683;-73
2022/11/04 02:27:15;;;;;;;;;3.67;1.00;;;;;11.76;72.69;99814.03;4980082;28;45313;-72
2022/11/04 02:30:04;;;;;;;;;2.67;1.00;;;;;11.78;72.80;99832.50;4979320;28;45625;-72
2022/11/04 02:32:47;;;;;;;;;2.00;1.00;;;;;11.78;73.04;99819.19;4980657;28;45469;-72
2022/11/04 02:35:38;;;;;;;;;1.33;0.00;;;;;11.76;73.17;99814.03;4980128;28;45263;-72
2022/11/04 02:38:19;;;;;;;;;9.67;7.33;;;;;11.74;72.70;99829.38;4980236;28;45424;-74
2022/11/04 02:40:53;;;;;;;;;2.00;2.00;;;;;11.75;72.88;99831.03;4995664;28;48255;-73
2022/11/04 02:43:37;;;;;;;;;3.00;2.00;;;;;11.78;72.70;99835.16;4979382;28;45407;-71
2022/11/04 02:46:35;;;;;;;;;12.00;9.67;;;;;11.83;73.36;99831.03;4980237;28;45527;-71
2022/11/04 02:49:10;;;;;;;;;3.00;2.00;;;;;11.72;73.00;99810.06;4979631;28;45541;-72
2022/11/04 02:51:41;;;;;;;;;1.67;0.00;;;;;11.92;72.59;99830.97;4979555;28;46643;-75
2022/11/04 02:54:24;;;;;;;;;3.67;1.00;;;;;11.71;72.45;99781.78;4967989;28;45815;-71
2022/11/04 02:56:53;;;;;;;;;2.00;2.00;;;;;12.00;72.15;99817.59;4980390;28;45305;-70
2022/11/04 02:59:26;;;;;;;;;2.00;1.00;;;;;12.02;72.30;99804.97;4967909;28;45688;-72
2022/11/04 03:01:55;;;;;;;;;3.00;0.67;;;;;11.81;72.16;99776.25;4959566;28;48560;-71
2022/11/04 03:04:29;;;;;;;;;1.00;1.00;;;;;11.82;72.04;99777.94;4970304;28;45421;-71
2022/11/04 03:06:57;;;;;;;;;4.00;2.67;;;;;11.75;72.33;99772.44;4979793;28;45234;-72
2022/11/04 03:09:26;;;;;;;;;2.67;0.00;;;;;11.15;72.03;99661.31;4978874;28;45608;-72
2022/11/04 03:11:56;;;;;;;;;1.67;1.00;;;;;11.96;72.38;99802.97;4994644;28;47316;-73
2022/11/04 03:14:34;;;;;;;;;3.67;2.00;;;;;11.58;72.31;99728.28;4978231;28;45340;-72
2022/11/04 03:17:05;;;;;;;;;1.33;1.33;;;;;11.55;72.42;99708.16;4979720;28;45382;-71
2022/11/04 03:19:53;;;;;;;;;1.00;1.00;;;;;12.00;72.19;99790.97;4990470;28;45649;-69
2022/11/04 03:22:22;;;;;;;;;1.00;1.00;;;;;11.37;72.37;99696.13;4968020;28;46677;-72
2022/11/04 03:24:48;;;;;;;;;2.67;2.67;;;;;11.70;72.21;99736.72;4979387;28;45182;-71
2022/11/04 03:27:53;;;;;;;;;2.00;2.00;;;;;12.10;72.14;99780.94;4979346;28;45424;-72
2022/11/04 03:30:22;;;;;;;;;2.00;0.00;;;;;11.65;72.19;99701.81;4977919;28;45564;-69
2022/11/04 03:33:33;;;;;;;;;2.33;0.67;;;;;11.97;71.80;99756.69;4979597;28;45609;-71
2022/11/04 03:35:58;;;;;;;;;1.33;1.33;;;;;11.92;72.08;99746.56;4978849;28;46437;-69
2022/11/04 03:38:24;;;;;;;;;0.00;0.00;;;;;12.05;71.70;99769.97;4994748;28;45472;-73
2022/11/04 03:40:50;;;;;;;;;1.00;1.00;;;;;12.03;71.90;99772.00;4977549;28;45190;-72
2022/11/04 03:43:23;;;;;;;;;3.00;2.00;;;;;11.96;72.06;99769.19;4979248;28;45552;-73
2022/11/04 03:45:49;;;;;;;;;1.00;1.00;;;;;11.83;71.68;99743.16;4978714;28;45231;-72
2022/11/04 03:48:14;;;;;;;;;1.33;1.33;;;;;11.49;71.88;99676.94;4979292;28;45515;-71
2022/11/04 03:50:46;;;;;;;;;0.67;0.33;;;;;12.07;71.39;99760.78;4978999;28;45219;-71
2022/11/04 03:53:15;;;;;;;;;2.67;0.67;;;;;11.58;71.40;99712.31;4979359;28;45894;-72
2022/11/04 03:55:55;;;;;;;;;1.00;1.00;;;;;12.03;71.49;99762.16;4978733;28;45452;-72
2022/11/04 03:58:42;;;;;;;;;0.00;0.00;;;;;12.04;71.73;99760.31;4978407;28;45567;-74
2022/11/04 04:01:38;;;;;;;;;0.67;0.67;;;;;12.00;71.16;99753.66;4978097;28;45450;-73
2022/11/04 04:04:27;;;;;;;;;2.33;1.00;;;;;12.02;71.32;99773.81;4977080;28;47175;-72
2022/11/04 04:07:00;;;;;;;;;0.00;0.00;;;;;11.99;71.53;99763.50;4979337;28;45320;-74
2022/11/04 04:09:41;;;;;;;;;0.00;0.00;;;;;11.55;71.31;99712.66;4977569;28;45530;-74
2022/11/04 04:12:15;;;;;;;;;1.00;1.00;;;;;11.92;71.79;99778.53;4993252;28;45639;-71
2022/11/04 04:14:47;;;;;;;;;4.00;0.33;;;;;11.90;71.94;99764.56;4978572;28;46890;-71
2022/11/04 04:17:19;;;;;;;;;1.00;1.00;;;;;11.12;71.72;99639.56;4978256;28;45459;-73
2022/11/04 04:19:52;;;;;;;;;2.00;0.00;;;;;11.47;71.46;99705.56;4977342;28;45537;-71
2022/11/04 04:22:24;;;;;;;;;2.00;0.67;;;;;11.69;71.56;99730.56;4978242;28;45472;-73
2022/11/04 04:27:40;;;;;;;;;1.00;1.00;;;;;11.90;71.29;99780.56;4978329;28;45226;-72
2022/11/04 04:30:12;;;;;;;;;4.00;0.00;;;;;11.21;71.50;99687.25;4979622;28;45475;-72
2022/11/04 04:33:00;;;;;;;;;0.00;0.00;;;;;10.68;71.71;99599.38;4978869;28;45313;-73
2022/11/04 04:35:40;;;;;;;;;2.00;1.00;;;;;11.76;71.84;99779.44;4977303;28;45329;-74
2022/11/04 04:47:06;;;;;;;;;3.00;2.00;;;;;11.80;71.74;99774.59;4970101;28;45887;-72
2022/11/04 04:49:33;;;;;;;;;0.00;0.00;;;;;11.34;71.70;99709.78;4970436;28;45503;-71
2022/11/04 04:52:03;;;;;;;;;1.00;1.00;;;;;11.82;71.90;99777.94;4978419;28;45230;-72
2022/11/04 04:54:29;;;;;;;;;1.33;1.00;;;;;11.84;71.87;99808.72;4979225;28;45349;-71
2022/11/04 04:56:54;;;;;;;;;2.00;0.00;;;;;11.60;71.22;99742.25;4977913;28;46379;-72
2022/11/04 04:59:20;;;;;;;;;1.67;0.00;;;;;11.88;71.38;99788.72;4976403;28;46590;-71
2022/11/04 05:01:45;;;;;;;;;0.00;0.00;;;;;11.90;70.93;99787.72;4992999;28;45419;-73
2022/11/04 05:04:11;;;;;;;;;0.00;0.00;;;;;11.90;70.77;99796.53;4977797;28;45223;-72
2022/11/04 05:06:36;;;;;;;;;1.67;0.33;;;;;11.11;71.11;99664.50;4977746;28;45986;-72
2022/11/04 05:09:01;;;;;;;;;0.00;0.00;;;;;11.90;71.26;99782.38;4973623;28;46024;-72
2022/11/04 05:11:27;;;;;;;;;1.00;0.00;;;;;11.19;70.69;99653.81;4992593;28;45278;-73
2022/11/04 05:13:53;;;;;;;;;2.00;1.00;;;;;12.01;70.96;99787.28;4975522;28;45540;-73
2022/11/04 05:16:18;;;;;;;;;0.00;0.00;;;;;12.02;70.57;99792.47;4977188;28;45898;-72
2022/11/04 05:18:43;;;;;;;;;0.00;0.00;;;;;11.95;70.57;99782.69;4976811;28;45703;-72
2022/11/04 05:21:12;;;;;;;;;0.00;0.00;;;;;12.07;70.40;99791.94;4977153;28;45506;-70
2022/11/04 05:23:37;;;;;;;;;2.67;0.67;;;;;11.95;70.17;99769.38;4977223;28;45308;-73
2022/11/04 05:26:03;;;;;;;;;2.00;0.67;;;;;12.06;70.44;99796.44;4977767;28;45599;-71
2022/11/04 05:28:28;;;;;;;;;1.33;0.00;;;;;11.10;71.06;99639.75;4988929;28;45179;-72
2022/11/04 05:30:54;;;;;;;;;1.00;1.00;;;;;12.07;70.50;99797.28;4958401;28;45271;-72
2022/11/04 05:33:19;;;;;;;;;4.00;1.33;;;;;11.96;70.64;99789.66;4970292;28;45396;-73
2022/11/04 05:35:45;;;;;;;;;0.00;0.00;;;;;11.92;70.41;99769.72;4977689;28;45553;-72
2022/11/04 05:38:10;;;;;;;;;0.00;0.00;;;;;12.03;70.47;99798.63;4977058;28;45472;-71
2022/11/04 05:40:36;;;;;;;;;3.00;0.67;;;;;11.57;70.48;99737.25;4976257;28;45275;-72
2022/11/04 05:43:01;;;;;;;;;1.00;0.00;;;;;12.05;70.58;99800.09;4976952;28;45220;-74
2022/11/04 05:45:27;;;;;;;;;2.00;1.00;;;;;11.85;70.21;99756.28;4977160;28;45811;-74
2022/11/04 05:47:58;;;;;;;;;0.33;0.33;;;;;11.85;70.16;99759.78;4976875;28;45587;-74
2022/11/04 05:50:23;;;;;;;;;2.00;2.00;;;;;11.66;70.33;99722.91;4975311;28;45437;-72
2022/11/04 05:52:48;;;;;;;;;1.00;1.00;;;;;12.13;70.58;99817.88;4981287;28;45648;-73
2022/11/04 05:55:14;;;;;;;;;0.67;0.00;;;;;11.91;70.25;99782.22;4980364;28;46808;-72
2022/11/04 05:57:39;;;;;;;;;0.00;0.00;;;;;11.34;70.93;99704.47;4981526;28;45243;-75
2022/11/04 06:00:05;;;;;;;;;4.67;1.33;;;;;12.18;70.98;99831.47;4995334;28;45265;-71
2022/11/04 06:02:31;;;;;;;;;1.00;1.00;;;;;11.59;70.07;99725.44;4981134;28;45219;-72
2022/11/04 06:04:56;;;;;;;;;1.00;0.00;;;;;12.02;70.13;99797.81;4995209;28;47343;-71
2022/11/04 06:07:21;;;;;;;;;2.50;1.00;;;;;12.29;69.98;99838.25;4980618;28;45369;-74
2022/11/04 06:09:47;;;;;;;;;3.67;1.33;;;;;12.27;70.14;99843.75;4994997;28;45214;-72
2022/11/04 06:12:14;;;;;;;;;1.00;1.00;;;;;12.29;70.22;99839.09;4980489;28;45453;-72
2022/11/04 06:14:43;;;;;;;;;0.67;0.67;;;;;11.59;70.15;99727.28;4979306;28;49355;-72
2022/11/04 06:17:17;;;;;;;;;0.00;0.00;;;;;11.48;69.80;99717.88;4981309;28;46062;-72
2022/11/04 06:19:42;;;;;;;;;0.00;0.00;;;;;12.24;69.73;99849.44;4979856;28;45264;-71
2022/11/04 06:22:13;;;;;;;;;0.33;0.33;;;;;11.88;69.79;99791.38;4994866;28;45527;-70
2022/11/04 06:24:39;;;;;;;;;2.00;1.00;;;;;12.35;69.53;99865.03;4980476;28;46812;-74
2022/11/04 06:27:04;;;;;;;;;3.00;1.00;;;;;12.25;69.23;99845.78;4979975;28;45413;-73
2022/11/04 06:29:30;;;;;;;;;2.33;1.00;;;;;11.74;69.62;99770.78;4980886;28;45615;-75
2022/11/04 06:31:55;;;;;;;;;0.00;0.00;;;;;12.21;69.86;99849.78;4980703;28;45262;-72
2022/11/04 06:34:21;;;;;;;;;0.33;0.33;;;;;11.86;69.58;99792.56;4998192;28;48841;-71
2022/11/04 06:36:47;;;;;;;;;1.00;0.00;;;;;11.79;69.81;99788.94;4981596;28;45555;-72
2022/11/04 06:39:13;;;;;;;;;1.00;1.00;;;;;12.03;70.50;99823.44;4980530;28;45344;-72
2022/11/04 06:41:38;;;;;;;;;3.00;0.00;;;;;12.23;69.79;99866.44;4978855;28;45582;-74
2022/11/04 06:44:04;;;;;;;;;0.00;0.00;;;;;12.18;69.79;99855.47;4980468;28;46784;-73
2022/11/04 06:46:41;;;;;;;;;1.67;1.67;;;;;12.21;69.62;99865.75;4995269;28;46776;-73
2022/11/04 06:49:11;;;;;;;;;1.67;1.67;;;;;11.51;69.60;99753.94;4980637;28;45251;-72
2022/11/04 06:51:37;;;;;;;;;2.00;0.00;;;;;12.14;70.19;99857.66;4980328;28;45610;-75
2022/11/04 06:54:02;;;;;;;;;2.00;1.00;;;;;12.14;69.89;99868.31;4980712;28;46524;-73
2022/11/04 06:56:28;;;;;;;;;0.00;0.00;;;;;12.18;70.21;99863.47;4979945;28;45361;-72
2022/11/04 06:58:54;;;;;;;;;2.33;1.00;;;;;12.23;69.58;99865.63;4978969;28;45353;-76
2022/11/04 07:01:22;;;;;;;;;3.00;2.00;;;;;11.39;69.70;99726.88;4980203;28;45278;-73
2022/11/04 07:03:49;;;;;;;;;1.33;1.33;;;;;12.00;69.42;99833.59;4979370;28;46795;-74
2022/11/04 07:06:14;;;;;;;;;4.33;2.00;;;;;12.01;69.16;99829.91;4978509;28;45637;-74
2022/11/04 07:08:40;;;;;;;;;3.75;2.75;;;;;12.28;69.58;99868.56;4979751;28;45450;-71
2022/11/04 07:11:05;;;;;;;;;3.00;1.00;;;;;10.31;69.15;99561.00;4978423;28;45456;-74
2022/11/04 07:13:31;;;;;;;;;5.00;2.00;;;;;12.35;69.62;99885.50;4979890;28;45741;-74
2022/11/04 07:15:56;;;;;;;;;3.00;1.67;;;;;12.33;69.29;99887.53;4993389;28;45791;-71
2022/11/04 07:18:22;;;;;;;;;3.00;3.00;;;;;12.39;69.50;99898.31;4980598;28;45303;-73
2022/11/04 07:20:47;;;;;;;;;2.00;2.00;;;;;12.22;69.33;99874.63;4981703;28;45413;-73
2022/11/04 07:23:13;;;;;;;;;2.67;1.00;;;;;12.45;69.33;99897.63;4980523;28;45691;-72
2022/11/04 07:25:38;;;;;;;;;5.00;3.33;;;;;12.43;68.92;99910.31;4980827;28;45259;-74
2022/11/04 07:28:04;;;;;;;;;5.67;1.00;;;;;12.15;68.67;99853.16;4981683;28;45546;-74
2022/11/04 07:30:30;;;;;;;;;1.67;1.67;;;;;12.50;68.86;99905.09;4982560;28;45380;-72
2022/11/04 07:32:55;;;;;;;;;2.00;1.67;;;;;11.82;68.38;99804.59;4995283;28;47497;-75
2022/11/04 07:35:21;;;;;;;;;1.00;1.00;;;;;11.98;68.62;99843.59;4979792;28;45384;-74
2022/11/04 07:37:46;;;;;;;;;3.33;3.00;;;;;12.44;68.35;99911.13;4994371;28;45302;-73
2022/11/04 07:40:12;;;;;;;;;1.00;1.00;;;;;11.67;68.34;99780.50;4980497;28;45377;-74
2022/11/04 07:42:37;;;;;;;;;1.00;1.00;;;;;12.17;68.22;99864.47;4995554;28;47709;-73
2022/11/04 07:45:03;;;;;;;;;6.00;2.00;;;;;12.51;68.28;99921.91;4994134;28;46112;-74
2022/11/04 07:47:35;;;;;;;;;2.00;1.00;;;;;12.47;68.20;99921.44;4978578;28;45451;-74
2022/11/04 07:50:00;;;;;;;;;7.00;2.00;;;;;12.67;67.67;99940.47;4979141;28;45288;-72
2022/11/04 07:52:26;;;;;;;;;2.67;1.00;;;;;12.13;67.52;99847.19;4979673;28;45468;-73
2022/11/04 07:54:51;;;;;;;;;4.00;3.00;;;;;12.02;67.28;99820.94;4979557;28;45202;-75
2022/11/04 07:57:17;;;;;;;;;2.00;0.00;;;;;12.27;67.47;99864.25;4981073;28;45488;-73
2022/11/04 07:59:42;;;;;;;;;5.67;4.33;;;;;12.62;67.38;99916.19;4982499;28;45189;-73
2022/11/04 08:02:12;;;;;;;;;1.67;1.67;;;;;12.56;66.93;99895.53;4981890;28;45892;-73
2022/11/04 08:04:37;;;;;;;;;7.00;3.00;;;;;12.42;66.76;99876.66;4978931;28;46293;-77
2022/11/04 08:07:06;;;;;;;;;1.33;1.33;;;;;13.06;66.36;99959.84;4975786;28;45548;-79
2022/11/04 08:09:32;;;;;;;;;4.00;3.00;;;;;12.78;65.91;99886.69;4975850;28;45467;-75
2022/11/04 08:11:57;;;;;;;;;3.00;3.00;;;;;12.86;65.80;99875.97;4978508;28;45260;-73
2022/11/04 08:14:22;;;;;;;;;1.00;1.00;;;;;13.20;63.72;99910.19;4977921;28;45551;-73
2022/11/04 08:16:50;;;;;;;;;3.00;3.00;;;;;13.84;63.32;99989.88;4978654;28;45767;-72
2022/11/04 08:19:15;;;;;;;;;5.33;4.00;;;;;14.04;63.03;99977.63;4979422;28;45644;-74
2022/11/04 08:21:40;;;;;;;;;4.33;0.67;;;;;14.37;62.31;99974.53;4977186;28;45587;-74
2022/11/04 08:24:06;;;;;;;;;3.00;3.00;;;;;14.37;61.04;99937.09;4978003;28;45377;-73
2022/11/04 08:26:31;;;;;;;;;1.33;1.33;;;;;14.76;60.91;99966.97;4974747;28;45489;-72
2022/11/04 08:28:57;;;;;;;;;0.00;0.00;;;;;15.16;59.72;99986.94;4977607;28;45573;-72
2022/11/04 08:31:25;;;;;;;;;2.33;1.67;;;;;15.46;58.98;100005.53;4993727;28;48387;-72
2022/11/04 08:33:51;;;;;;;;;0.67;0.67;;;;;15.24;58.20;99974.44;4978039;28;46046;-73
2022/11/04 08:36:26;;;;;;;;;3.33;1.00;;;;;14.90;57.85;99901.03;4979829;28;45472;-75
2022/11/04 08:38:52;;;;;;;;;0.33;0.00;;;;;15.60;57.83;99993.09;4979595;28;45554;-72
2022/11/04 08:41:20;;;;;;;;;2.67;2.00;;;;;15.89;57.39;100017.03;4978917;28;45538;-72
2022/11/04 08:43:46;;;;;;;;;0.00;0.00;;;;;15.86;56.25;100013.91;4978714;28;45506;-72
2022/11/04 08:46:12;;;;;;;;;2.33;1.00;;;;;15.92;55.93;100013.94;4979056;28;45430;-70
2022/11/04 08:48:39;;;;;;;;;2.00;2.00;;;;;15.86;56.05;100019.28;4979645;28;45442;-77
2022/11/04 08:51:11;;;;;;;;;1.67;1.67;;;;;15.85;56.50;100034.53;4976712;28;47431;-74
2022/11/04 08:53:36;;;;;;;;;0.25;0.00;;;;;15.26;56.36;99954.50;4959025;28;46105;-75
2022/11/04 08:56:19;;;;;;;;;1.00;1.00;;;;;15.84;56.51;100050.81;4960448;28;45339;-73
2022/11/04 08:58:44;;;;;;;;;1.00;1.00;;;;;15.91;55.64;100055.19;4961119;28;45446;-73
2022/11/04 09:01:11;;;;;;;;;1.00;1.00;;;;;15.95;55.32;100061.81;4958106;28;46333;-72
2022/11/04 09:03:38;;;;;;;;;2.33;1.00;;;;;15.84;55.21;100065.03;4981695;28;45731;-73
2022/11/04 09:06:06;;;;;;;;;0.00;0.00;;;;;15.52;55.28;100018.97;4978321;28;45433;-75
2022/11/04 09:08:32;;;;;;;;;3.00;2.00;;;;;15.68;54.68;100066.13;4976835;28;45402;-74
2022/11/04 09:10:57;;;;;;;;;0.25;0.00;;;;;15.65;54.93;100066.53;4977377;28;45484;-73
2022/11/04 09:13:23;;;;;;;;;0.00;0.00;;;;;14.82;54.78;99942.16;4973659;28;45660;-74
2022/11/04 09:15:48;;;;;;;;;1.00;0.00;;;;;15.59;54.54;100075.31;4981721;28;46104;-72
2022/11/04 09:18:14;;;;;;;;;0.00;0.00;;;;;14.76;54.89;99953.59;4966117;28;45853;-78
2022/11/04 09:20:41;;;;;;;;;0.33;0.33;;;;;14.43;55.40;99909.63;4973384;28;45695;-72
2022/11/04 09:23:06;;;;;;;;;1.00;0.00;;;;;15.24;55.64;100044.91;4975792;28;45429;-74
2022/11/04 09:25:32;;;;;;;;;1.33;1.00;;;;;15.25;54.99;100049.25;4990644;28;45496;-74
2022/11/04 09:27:58;;;;;;;;;1.75;0.75;;;;;14.38;55.59;99912.00;4968250;28;45473;-74
2022/11/04 09:30:24;;;;;;;;;1.00;1.00;;;;;14.75;55.71;99986.72;4973100;28;46909;-74
2022/11/04 09:32:50;;;;;;;;;0.00;0.00;;;;;15.12;55.63;100076.69;4958252;28;45329;-74
2022/11/04 09:35:16;;;;;;;;;1.00;1.00;;;;;15.30;56.02;100115.59;4959095;28;45339;-72
2022/11/04 09:37:42;;;;;;;;;0.75;0.00;;;;;15.21;55.78;100106.84;4982010;28;45611;-75
2022/11/04 09:40:14;;;;;;;;;2.00;1.00;;;;;15.07;56.17;100072.94;4977982;28;46182;-73
2022/11/04 09:42:51;;;;;;;;;3.00;2.00;;;;;15.20;56.05;100110.53;4977673;28;45282;-75
2022/11/04 09:45:26;;;;;;;;;3.33;2.67;;;;;15.24;56.11;100116.38;4992606;28;45319;-73
2022/11/04 09:47:57;;;;;;;;;1.33;1.00;;;;;14.62;55.98;100045.47;4957896;28;45295;-74
2022/11/04 09:50:36;;;;;;;;;1.33;1.33;;;;;14.39;57.54;100031.31;4967398;28;46135;-73
2022/11/04 09:53:13;;;;;;;;;2.33;1.33;;;;;13.83;59.05;99965.00;4977869;28;45318;-73
2022/11/04 09:55:48;;;;;;;;;1.00;1.00;;;;;14.83;58.85;100149.03;4978072;28;45518;-72
2022/11/04 09:58:14;;;;;;;;;2.00;0.67;;;;;14.68;59.49;100149.03;4977822;28;45357;-75
2022/11/04 10:00:47;;;;;;;;;1.33;1.33;;;;;14.24;59.23;100096.34;4977199;28;46500;-75
2022/11/04 10:03:18;;;;;;;;;1.67;1.67;;;;;14.53;59.39;100164.25;4993282;28;45384;-76
2022/11/04 10:05:59;;;;;;;;;1.67;1.33;;;;;14.49;59.82;100168.31;4982617;28;45401;-71
2022/11/04 10:08:33;;;;;;;;;1.33;1.33;;;;;14.32;59.60;100160.41;4978399;28;45520;-74
2022/11/04 10:11:10;;;;;;;;;1.00;1.00;;;;;14.28;59.54;100161.81;4968196;28;47275;-73
2022/11/04 10:13:41;;;;;;;;;2.67;1.00;;;;;14.29;59.49;100184.03;4975192;28;45550;-75
2022/11/04 10:16:24;;;;;;;;;1.67;1.67;;;;;14.17;59.72;100172.94;4975262;28;45528;-74
2022/11/04 10:18:49;;;;;;;;;3.00;3.00;;;;;14.33;60.43;100182.66;4978289;28;45429;-75
2022/11/04 10:21:34;;;;;;;;;3.67;3.67;;;;;13.70;59.89;100093.84;4975864;28;46717;-72
2022/11/04 10:24:14;;;;;;;;;4.00;4.00;;;;;14.39;60.23;100207.81;4976092;28;45239;-76
2022/11/04 10:27:16;;;;;;;;;2.33;0.67;;;;;14.40;59.86;100214.81;4990756;28;45491;-75
2022/11/04 10:29:44;;;;;;;;;2.00;2.00;;;;;14.21;58.74;100203.63;4967984;28;45657;-75
2022/11/04 10:32:46;;;;;;;;;6.67;1.67;;;;;14.44;58.83;100210.84;4976239;28;46920;-74
2022/11/04 10:35:25;;;;;;;;;5.00;3.00;;;;;14.42;58.84;100207.47;4967816;28;45550;-71
2022/11/04 10:37:53;;;;;;;;;3.67;3.67;;;;;14.64;58.36;100244.06;4979451;28;45381;-73
2022/11/04 10:40:24;;;;;;;;;3.00;2.00;;;;;14.58;57.61;100236.75;4981154;28;45436;-74
2022/11/04 10:42:51;;;;;;;;;3.00;2.00;;;;;14.62;57.50;100240.75;4979855;28;45735;-74
2022/11/04 10:45:22;;;;;;;;;4.67;4.00;;;;;14.76;57.30;100252.47;4980286;28;45557;-75
2022/11/04 10:47:59;;;;;;;;;4.00;2.67;;;;;14.93;58.18;100253.97;4979504;28;45531;-73
2022/11/04 10:50:41;;;;;;;;;4.67;2.00;;;;;14.41;57.28;100155.81;4995536;28;45739;-74
2022/11/04 10:53:17;;;;;;;;;3.67;3.67;;;;;15.03;56.07;100240.31;4980494;28;46669;-73
2022/11/04 10:56:16;;;;;;;;;3.67;3.67;;;;;15.12;54.67;100279.34;4980139;28;45377;-73
2022/11/04 10:58:45;;;;;;;;;3.00;3.00;;;;;14.66;54.35;100236.69;4994779;28;45457;-75
2022/11/04 11:01:32;;;;;;;;;3.00;2.00;;;;;14.69;55.75;100252.38;4982614;28;45648;-73
2022/11/04 11:03:59;;;;;;;;;2.67;2.67;;;;;15.03;55.79;100293.84;4993538;28;47421;-78
2022/11/04 11:06:27;;;;;;;;;4.67;2.00;;;;;14.93;55.61;100287.94;4961587;28;45484;-76
2022/11/04 11:09:24;;;;;;;;;2.00;2.00;;;;;14.86;55.23;100275.28;4966104;28;45480;-76
2022/11/04 11:11:51;;;;;;;;;1.00;1.00;;;;;14.59;54.65;100257.16;4990013;28;45575;-74
2022/11/04 11:14:28;;;;;;;;;1.00;1.00;;;;;14.66;55.54;100278.66;4979165;28;45463;-71
2022/11/04 11:17:13;;;;;;;;;2.00;2.00;;;;;14.52;55.73;100302.53;4992722;28;45539;-75
2022/11/04 11:20:01;;;;;;;;;7.33;6.00;;;;;14.50;56.43;100301.03;4979360;28;45481;-75
2022/11/04 11:22:42;;;;;;;;;3.00;3.00;;;;;14.49;56.38;100294.88;4995175;28;45563;-73
2022/11/04 11:25:24;;;;;;;;;7.00;6.33;;;;;14.28;56.93;100262.59;4961659;28;46375;-71
2022/11/04 11:27:52;;;;;;;;;3.67;2.33;;;;;14.44;56.32;100302.59;4970723;28;45317;-74
2022/11/04 11:30:23;;;;;;;;;3.00;3.00;;;;;14.36;56.57;100294.59;4974821;28;45405;-73
2022/11/04 11:33:14;;;;;;;;;4.00;2.50;;;;;13.77;56.08;100208.00;4980097;28;45421;-72
2022/11/04 11:35:46;;;;;;;;;4.00;3.00;;;;;13.66;56.15;100186.03;4992451;28;47595;-74
2022/11/04 11:38:20;;;;;;;;;3.00;2.67;;;;;14.53;56.26;100324.75;4994048;28;46068;-80
2022/11/04 11:40:51;;;;;;;;;7.00;4.00;;;;;14.55;55.86;100312.03;4976232;28;45486;-74
2022/11/04 11:43:29;;;;;;;;;4.75;2.25;;;;;14.58;56.04;100327.72;4979515;28;45487;-74
2022/11/04 11:45:58;;;;;;;;;6.67;5.67;;;;;14.43;55.70;100287.56;4979845;28;45941;-73
2022/11/04 11:48:39;;;;;;;;;5.00;4.33;;;;;14.59;55.89;100310.66;4993613;28;45848;-73
2022/11/04 11:51:05;;;;;;;;;4.67;3.00;;;;;14.90;55.61;100340.81;4979269;28;45399;-72
2022/11/04 11:53:34;;;;;;;;;6.33;2.67;;;;;14.84;55.45;100312.09;4980043;28;45325;-72
2022/11/04 11:56:02;;;;;;;;;1.33;1.00;;;;;15.16;55.08;100351.09;4979505;28;46322;-72
2022/11/04 11:58:41;;;;;;;;;1.00;1.00;;;;;15.24;55.18;100355.56;4979455;28;45430;-73
2022/11/04 12:01:24;;;;;;;;;2.67;2.67;;;;;15.27;54.90;100360.53;4980155;28;45269;-73
2022/11/04 12:03:50;;;;;;;;;3.67;3.00;;;;;14.98;54.73;100349.78;4977660;28;45441;-72
2022/11/04 12:06:34;;;;;;;;;3.33;3.33;;;;;15.01;55.57;100368.13;4988552;28;46277;-72
2022/11/04 12:09:08;;;;;;;;;1.33;1.33;;;;;14.88;55.32;100380.31;4991316;28;45544;-73
2022/11/04 12:11:58;;;;;;;;;4.00;3.67;;;;;14.84;55.70;100383.53;4972000;28;45511;-74
2022/11/04 12:14:32;;;;;;;;;3.00;3.00;;;;;14.90;55.88;100402.38;4995998;28;45648;-73
2022/11/04 12:17:02;;;;;;;;;8.00;4.33;;;;;14.65;56.14;100367.97;4980106;28;45711;-77